• Join FlightAware (Why Join?)
  • Login
  • US Flag 
05:32PM EDT


 

Airport Tracker/Info


-or-


 

Live Flight TrackerFlight Track Log ✈ UAL4108 ✈ 09-Jul-2013 ✈ KDAL - KIAH

Flight Track Log - Related Links

Times and Time Zones

All times are in EDT time to prevent confusion due to time zone crossing. See the UAL4108 flight status page for this flight to view local times or setup timezone preferences in your user account.

Time Position Orientation Groundspeed Altitude Reporting Facility
EDT Latitude Longitude Course Direction KTS MPH feet Rate Location/Type
08:29PM 32.8000 -96.7833 129° Southeast 219 252 3,400  Level Dallas / Fort Worth TRACON
08:30PM 32.7500 -96.7333 140° Southeast 246 283 5,600 1,920 Climbing Dallas / Fort Worth TRACON
08:32PM 32.6250 -96.7572 189° South 277 319 8,600 1,740 Climbing Fort Worth Center
08:33PM 32.5561 -96.7700 189° South 277 319 10,300 1,500 Climbing Fort Worth Center
08:34PM 32.4622 -96.7856 188° South 301 346 11,700 1,200 Climbing Fort Worth Center
08:35PM 32.3767 -96.8008 189° South 337 388 12,800 1,260 Climbing Fort Worth Center
08:36PM 32.2703 -96.8089 184° South 353 406 14,300 1,380 Climbing Fort Worth Center
08:37PM 32.1742 -96.7753 164° South 353 406 15,700 1,320 Climbing Fort Worth Center
08:38PM 32.0781 -96.7392 162° South 358 412 17,000 1,200 Climbing Fort Worth Center
08:39PM 31.9775 -96.7006 162° South 363 418 18,100 960 Climbing Fort Worth Center
08:40PM 31.8897 -96.6669 162° South 363 418 19,000 1,020 Climbing Fort Worth Center
08:41PM 31.8219 -96.6375 160° South 385 443 19,700 1,020 Climbing Houston Center
08:42PM 31.7181 -96.5947 161° South 390 449 20,700 600 Climbing Houston Center
08:43PM 31.6100 -96.5508 161° South 402 463 21,000 120 Climbing Houston Center
08:44PM 31.4969 -96.5050 161° South 420 483 21,000  Level Houston Center
08:45PM 31.3811 -96.4575 161° South 432 497 21,000  Level Houston Center
08:46PM 31.2758 -96.3900 151° Southeast 424 488 21,000  Level Houston Center
08:47PM 31.1700 -96.3211 151° Southeast 427 491 21,000  Level Houston Center
08:48PM 31.0656 -96.2533 151° Southeast 425 489 21,000 -480 Level Houston Center
08:49PM 30.9592 -96.1844 151° Southeast 430 495 20,100 -1,380 Descending Houston Center
08:50PM 30.8553 -96.1178 151° Southeast 423 487 18,200 -1,980 Descending Houston Center
08:50PM 30.7819 -96.0725 152° Southeast 417 480 16,900 -2,040 Descending Houston Center
08:52PM 30.6567 -95.9928 151° Southeast 404 465 14,100 -1,980 Descending Houston Center
08:53PM 30.5675 -95.9342 150° Southeast 376 433 12,100 -1,860 Descending Houston Center
08:54PM 30.4642 -95.8689 151° Southeast 311 358 10,100 -1,020 Descending Houston Center
08:55PM 30.4083 -95.8167 141° Southeast 291 335 10,000 -360 Descending Houston Center
08:56PM 30.3308 -95.8008 170° South 291 335 9,400 -840 Descending Houston Center
08:57PM 30.2517 -95.7939 176° South 287 330 8,400 -1,020 Descending Houston Center
08:58PM 30.1750 -95.7881 176° South 278 320 7,400 -1,020 Descending Houston Center
08:59PM 30.0994 -95.7814 176° South 275 316 6,300 -1,620 Descending Houston Center
09:00PM 30.0175 -95.7300 151° Southeast 254 292 3,800 -1,620 Descending Houston Center
09:01PM 30.0069 -95.6711 102° East 251 289 3,000 -480 Descending Houston Center
09:02PM 30.0075 -95.5906 90° East 251 289 3,000 -60 Level Houston Center
09:03PM 30.0078 -95.5114 90° East 250 288 2,900 -120 Descending Houston Center